createdAt,value
2019-02-20T00:00:09.598Z,9.30
2019-02-20T00:02:36.674Z,17.07
2019-02-20T00:05:03.545Z,19.05
2019-02-20T00:07:30.436Z,10.32
2019-02-20T00:09:57.203Z,11.00
2019-02-20T00:12:23.719Z,14.15
2019-02-20T00:14:50.523Z,11.83
2019-02-20T00:17:17.329Z,8.75
2019-02-20T00:19:44.248Z,8.78
2019-02-20T00:22:11.016Z,16.57
2019-02-20T00:24:38.030Z,13.65
2019-02-20T00:27:04.618Z,8.88
2019-02-20T00:29:31.363Z,8.95
2019-02-20T00:31:58.227Z,9.95
2019-02-20T00:34:24.975Z,11.83
2019-02-20T00:36:51.598Z,16.20
2019-02-20T00:39:18.404Z,11.30
2019-02-20T00:41:45.625Z,10.23
2019-02-20T00:44:20.475Z,12.75
2019-02-20T00:46:49.372Z,13.18
2019-02-20T00:49:17.841Z,13.55
2019-02-20T00:51:46.307Z,11.38
2019-02-20T00:54:13.078Z,11.20
2019-02-20T00:56:39.839Z,6.85
2019-02-20T00:59:06.606Z,12.35
2019-02-20T01:01:33.224Z,10.03
2019-02-20T01:04:00.308Z,6.85
2019-02-20T01:06:27.158Z,10.03
2019-02-20T01:08:53.801Z,8.03
2019-02-20T01:11:20.518Z,4.83
2019-02-20T01:13:47.249Z,10.18
2019-02-20T01:16:13.907Z,11.40
2019-02-20T01:18:40.595Z,10.43
2019-02-20T01:21:07.431Z,14.05
2019-02-20T01:23:34.255Z,10.93
2019-02-20T01:26:01.097Z,13.88
2019-02-20T01:28:27.587Z,10.05
2019-02-20T01:30:54.466Z,8.65
2019-02-20T01:33:21.187Z,7.45
2019-02-20T01:35:48.068Z,7.67
2019-02-20T01:38:14.788Z,10.72
2019-02-20T01:40:41.526Z,11.12
2019-02-20T01:43:08.270Z,10.68
2019-02-20T01:45:34.733Z,10.15
2019-02-20T01:48:01.574Z,8.45
2019-02-20T01:50:28.183Z,9.93
2019-02-20T01:52:55.082Z,9.58
2019-02-20T01:55:21.652Z,8.95
2019-02-20T01:57:48.247Z,17.35
2019-02-20T02:00:15.064Z,7.72
2019-02-20T02:02:42.058Z,16.37
2019-02-20T02:05:14.853Z,12.75
2019-02-20T02:07:37.144Z,9.73
2019-02-20T02:10:06.145Z,9.35
2019-02-20T02:12:32.980Z,9.45
2019-02-20T02:14:59.423Z,18.52
2019-02-20T02:17:25.937Z,12.03
2019-02-20T02:19:52.856Z,11.70
2019-02-20T02:22:19.431Z,12.05
2019-02-20T02:24:45.882Z,8.65
2019-02-20T02:27:12.727Z,10.28
2019-02-20T02:29:39.372Z,8.00
2019-02-20T02:32:05.768Z,13.83
2019-02-20T02:34:32.211Z,7.83
2019-02-20T02:36:58.656Z,7.85
2019-02-20T02:39:25.229Z,12.35
2019-02-20T02:41:51.694Z,9.60
2019-02-20T02:44:18.256Z,7.95
2019-02-20T02:46:44.714Z,6.65
2019-02-20T02:49:11.184Z,14.35
2019-02-20T02:51:37.650Z,11.88
2019-02-20T02:54:04.225Z,9.68
2019-02-20T02:56:30.664Z,7.58
2019-02-20T02:58:57.138Z,22.15
2019-02-20T03:01:23.613Z,15.03
2019-02-20T03:03:50.101Z,13.15
2019-02-20T03:06:16.824Z,10.18
2019-02-20T03:08:43.272Z,14.98
2019-02-20T03:11:09.747Z,10.65
2019-02-20T03:13:36.193Z,9.93
2019-02-20T03:16:02.869Z,15.45
2019-02-20T03:18:29.329Z,13.98
2019-02-20T03:20:55.799Z,9.50
2019-02-20T03:23:22.264Z,16.10
2019-02-20T03:25:48.931Z,8.90
2019-02-20T03:28:15.385Z,13.20
2019-02-20T03:30:41.970Z,13.35
2019-02-20T03:33:08.522Z,18.37
2019-02-20T03:35:34.991Z,11.40
2019-02-20T03:38:01.549Z,13.10
2019-02-20T03:40:28.022Z,10.78
2019-02-20T03:42:54.576Z,9.58
2019-02-20T03:45:21.450Z,10.53
2019-02-20T03:47:48.002Z,15.10
2019-02-20T03:50:14.568Z,15.72
2019-02-20T03:52:41.034Z,10.68
2019-02-20T03:55:07.714Z,9.88
2019-02-20T03:57:34.364Z,7.87
2019-02-20T04:00:01.047Z,8.20
2019-02-20T04:02:27.533Z,12.35
2019-02-20T04:04:54.045Z,13.08
2019-02-20T04:07:20.793Z,12.05
2019-02-20T04:09:47.241Z,10.58
2019-02-20T04:12:13.731Z,12.30
2019-02-20T04:14:40.277Z,9.63
2019-02-20T04:17:06.852Z,9.10
2019-02-20T04:19:33.298Z,9.35
2019-02-20T04:21:59.772Z,8.08
2019-02-20T04:24:26.247Z,8.40
2019-02-20T04:26:52.956Z,10.98
2019-02-20T04:29:19.697Z,9.33
2019-02-20T04:31:46.321Z,15.60
2019-02-20T04:34:12.785Z,10.72
2019-02-20T04:36:39.361Z,9.38
2019-02-20T04:39:05.925Z,11.03
2019-02-20T04:41:32.360Z,19.42
2019-02-20T04:43:58.863Z,11.22
2019-02-20T04:46:25.605Z,11.20
2019-02-20T04:48:52.058Z,13.62
2019-02-20T04:51:18.605Z,10.80
2019-02-20T04:53:45.195Z,10.50
2019-02-20T04:56:11.765Z,13.45
2019-02-20T04:58:38.247Z,14.03
2019-02-20T05:01:05.085Z,8.95
2019-02-20T05:03:31.699Z,14.78
2019-02-20T05:05:58.178Z,12.35
2019-02-20T05:08:25.100Z,11.10
2019-02-20T05:10:51.729Z,10.43
2019-02-20T05:13:18.193Z,8.43
2019-02-20T05:15:44.999Z,9.73
2019-02-20T05:18:11.562Z,12.80
2019-02-20T05:20:38.032Z,15.23
2019-02-20T05:23:04.392Z,12.18
2019-02-20T05:25:30.957Z,14.18
2019-02-20T05:27:57.512Z,8.83
2019-02-20T05:30:24.105Z,15.70
2019-02-20T05:32:50.671Z,10.48
2019-02-20T05:35:17.149Z,8.23
2019-02-20T05:37:43.688Z,10.75
2019-02-20T05:40:10.341Z,15.70
2019-02-20T05:42:36.825Z,13.05
2019-02-20T05:45:04.277Z,13.68
2019-02-20T05:47:30.783Z,14.50
2019-02-20T05:49:57.220Z,13.45
2019-02-20T05:52:23.808Z,18.07
2019-02-20T05:54:50.363Z,16.23
2019-02-20T05:57:16.847Z,11.38
2019-02-20T05:59:43.321Z,13.08
2019-02-20T06:02:09.876Z,13.75
2019-02-20T06:04:36.431Z,14.93
2019-02-20T06:07:03.008Z,16.52
2019-02-20T06:09:29.451Z,14.07
2019-02-20T06:11:55.836Z,21.42
2019-02-20T06:14:22.666Z,23.42
2019-02-20T06:16:49.140Z,16.60
2019-02-20T06:19:15.693Z,14.13
2019-02-20T06:21:42.261Z,13.75
2019-02-20T06:24:08.920Z,18.82
2019-02-20T06:26:35.682Z,14.70
2019-02-20T06:29:02.134Z,15.55
2019-02-20T06:31:28.612Z,16.45
2019-02-20T06:33:55.080Z,13.45
2019-02-20T06:36:21.535Z,14.25
2019-02-20T06:38:48.106Z,20.08
2019-02-20T06:41:14.665Z,15.85
2019-02-20T06:43:41.140Z,18.20
2019-02-20T06:46:07.699Z,15.20
2019-02-20T06:48:34.178Z,14.40
2019-02-20T06:51:00.751Z,20.02
2019-02-20T06:53:27.233Z,12.65
2019-02-20T06:55:53.713Z,17.15
2019-02-20T06:58:20.177Z,25.95
2019-02-20T07:00:46.651Z,23.52
2019-02-20T07:03:13.132Z,17.17
2019-02-20T07:05:40.144Z,20.50
2019-02-20T07:08:13.341Z,21.05
2019-02-20T07:11:00.393Z,16.48
2019-02-20T07:13:38.994Z,20.05
2019-02-20T07:16:20.040Z,21.73
2019-02-20T07:18:50.318Z,21.73
2019-02-20T07:21:26.313Z,21.73
2019-02-20T07:24:17.266Z,21.37
2019-02-20T07:26:50.447Z,16.75
2019-02-20T07:29:41.688Z,23.07
2019-02-20T07:32:08.336Z,20.20
2019-02-20T07:34:34.820Z,21.25
2019-02-20T07:37:01.305Z,25.17
2019-02-20T07:39:27.756Z,30.12
2019-02-20T07:41:54.539Z,18.70
2019-02-20T07:44:21.101Z,23.18
2019-02-20T07:46:47.591Z,19.85
2019-02-20T07:49:14.325Z,30.00
2019-02-20T07:51:40.893Z,22.75
2019-02-20T07:54:07.484Z,26.35
2019-02-20T07:56:33.968Z,22.90
2019-02-20T07:59:00.700Z,27.93
2019-02-20T08:01:27.292Z,23.47
2019-02-20T08:03:53.761Z,28.75
2019-02-20T08:06:20.205Z,29.35
2019-02-20T08:08:46.681Z,36.03
2019-02-20T08:11:13.138Z,24.20
2019-02-20T08:13:39.717Z,28.60
2019-02-20T08:16:06.318Z,22.93
2019-02-20T08:18:32.790Z,28.65
2019-02-20T08:20:59.334Z,19.82
2019-02-20T08:23:25.904Z,30.30
2019-02-20T08:25:52.488Z,25.37
2019-02-20T08:28:19.048Z,24.32
2019-02-20T08:30:45.732Z,23.07
2019-02-20T08:33:12.309Z,22.32
2019-02-20T08:35:39.124Z,25.45
2019-02-20T08:38:05.683Z,26.23
2019-02-20T08:40:32.172Z,29.90
2019-02-20T08:42:58.721Z,27.87
2019-02-20T08:45:25.396Z,29.27
2019-02-20T08:47:51.753Z,29.13
2019-02-20T08:50:18.263Z,25.80
2019-02-20T08:52:44.728Z,23.80
2019-02-20T08:55:11.517Z,23.07
2019-02-20T08:57:37.989Z,28.35
2019-02-20T09:00:12.476Z,35.17
2019-02-20T09:02:39.119Z,32.13
2019-02-20T09:05:07.724Z,30.65
2019-02-20T09:07:34.190Z,36.05
2019-02-20T09:10:00.702Z,33.90
2019-02-20T09:12:27.416Z,27.65
2019-02-20T09:14:53.990Z,32.53
2019-02-20T09:17:20.732Z,31.50
2019-02-20T09:19:47.091Z,25.52
2019-02-20T09:22:13.688Z,34.65
2019-02-20T09:24:40.147Z,33.30
2019-02-20T09:27:06.629Z,29.43
2019-02-20T09:29:33.293Z,30.17
2019-02-20T09:32:00.033Z,31.80
2019-02-20T09:34:26.484Z,27.37
2019-02-20T09:36:52.968Z,34.23
2019-02-20T09:39:23.212Z,35.97
2019-02-20T09:41:49.609Z,39.20
2019-02-20T09:44:16.056Z,37.70
2019-02-20T09:46:42.821Z,37.90
2019-02-20T09:49:09.375Z,35.10
2019-02-20T09:51:35.857Z,39.50
2019-02-20T09:54:02.692Z,33.27
2019-02-20T09:56:29.468Z,35.93
2019-02-20T09:58:55.933Z,33.30
2019-02-20T10:01:22.499Z,40.47
2019-02-20T10:03:48.952Z,30.13
2019-02-20T10:06:15.350Z,30.27
2019-02-20T10:08:41.800Z,43.57
2019-02-20T10:11:08.388Z,30.83
2019-02-20T10:13:35.172Z,29.00
2019-02-20T10:16:01.729Z,29.27
2019-02-20T10:18:28.219Z,29.50
2019-02-20T10:20:54.680Z,32.77
2019-02-20T10:23:21.588Z,29.73
2019-02-20T10:25:48.133Z,37.10
2019-02-20T10:28:14.828Z,24.83
2019-02-20T10:30:43.004Z,31.40
2019-02-20T10:33:09.513Z,25.73
2019-02-20T10:35:36.215Z,25.43
2019-02-20T10:38:03.379Z,27.97
2019-02-20T10:40:30.020Z,28.97
2019-02-20T10:42:56.467Z,27.30
2019-02-20T10:45:23.202Z,28.83
2019-02-20T10:47:49.680Z,28.60
2019-02-20T10:50:16.287Z,28.87
2019-02-20T10:52:42.732Z,26.27
2019-02-20T10:55:09.940Z,20.97
2019-02-20T10:57:36.682Z,27.83
2019-02-20T11:00:24.249Z,17.50
2019-02-20T11:02:51.067Z,21.83
2019-02-20T11:05:18.021Z,16.20
2019-02-20T11:07:44.577Z,17.50
2019-02-20T11:10:11.650Z,21.63
2019-02-20T11:12:38.474Z,22.53
2019-02-20T11:15:06.358Z,17.50
2019-02-20T11:17:33.037Z,17.20
2019-02-20T11:19:59.563Z,16.10
2019-02-20T11:22:26.097Z,15.80
2019-02-20T11:24:53.797Z,15.83
2019-02-20T11:27:20.360Z,13.57
2019-02-20T11:29:46.809Z,16.13
2019-02-20T11:32:13.563Z,13.17
2019-02-20T11:34:40.239Z,16.30
2019-02-20T11:37:06.653Z,15.20
2019-02-20T11:39:37.723Z,19.43
2019-02-20T11:42:01.622Z,20.23
2019-02-20T11:44:28.393Z,21.40
2019-02-20T11:46:55.178Z,16.63
2019-02-20T11:49:22.756Z,22.30
2019-02-20T11:51:49.249Z,22.23
2019-02-20T11:54:15.810Z,16.60
2019-02-20T11:56:42.386Z,14.90
2019-02-20T11:59:08.864Z,16.53
2019-02-20T12:01:35.381Z,13.60
2019-02-20T12:04:01.912Z,18.63
2019-02-20T12:06:28.761Z,13.60
2019-02-20T12:08:55.727Z,10.67
2019-02-20T12:11:22.289Z,11.90
2019-02-20T12:13:49.149Z,14.83
2019-02-20T12:16:16.002Z,16.63
2019-02-20T12:18:42.785Z,12.63
2019-02-20T12:21:09.430Z,13.03
2019-02-20T12:23:36.814Z,12.20
2019-02-20T12:26:03.674Z,12.80
2019-02-20T12:28:30.261Z,11.40
2019-02-20T12:30:56.711Z,12.13
2019-02-20T12:33:23.293Z,9.87
2019-02-20T12:35:50.084Z,8.03
2019-02-20T12:38:16.568Z,15.23
2019-02-20T12:40:43.176Z,7.50
2019-02-20T12:43:09.633Z,10.37
2019-02-20T12:45:36.217Z,9.80
2019-02-20T12:48:02.755Z,12.10
2019-02-20T12:50:29.365Z,12.60
2019-02-20T12:52:55.707Z,9.03
2019-02-20T12:55:22.224Z,12.33
2019-02-20T12:57:48.945Z,11.43
2019-02-20T13:00:16.340Z,7.23
2019-02-20T13:02:42.809Z,7.00
2019-02-20T13:05:09.609Z,8.10
2019-02-20T13:07:36.433Z,8.00
2019-02-20T13:10:03.498Z,8.93
2019-02-20T13:12:30.519Z,6.93
2019-02-20T13:14:57.022Z,7.30
2019-02-20T13:17:23.587Z,7.60
2019-02-20T13:19:50.131Z,10.23
2019-02-20T13:22:16.838Z,6.10
2019-02-20T13:24:43.969Z,9.43
2019-02-20T13:27:10.505Z,5.17
2019-02-20T13:29:36.930Z,4.27
2019-02-20T13:32:03.508Z,9.23
2019-02-20T13:34:30.064Z,7.27
2019-02-20T13:36:56.544Z,8.50
2019-02-20T13:39:23.004Z,7.43
2019-02-20T13:41:49.482Z,8.80
2019-02-20T13:44:16.041Z,8.67
2019-02-20T13:46:42.736Z,10.80
2019-02-20T13:49:09.720Z,9.90
2019-02-20T13:51:36.636Z,5.77
2019-02-20T13:54:03.339Z,7.13
2019-02-20T13:56:29.978Z,8.97
2019-02-20T13:58:56.651Z,7.93
2019-02-20T14:01:23.200Z,9.10
2019-02-20T14:03:49.897Z,4.73
2019-02-20T14:06:16.451Z,5.50
2019-02-20T14:08:43.141Z,7.13
2019-02-20T14:11:10.009Z,7.97
2019-02-20T14:13:36.594Z,13.73
2019-02-20T14:16:03.374Z,10.53
2019-02-20T14:18:30.197Z,11.17
2019-02-20T14:20:56.656Z,11.50
2019-02-20T14:23:23.119Z,6.87
2019-02-20T14:25:49.582Z,5.77
2019-02-20T14:28:16.066Z,6.00
2019-02-20T14:30:42.825Z,4.07
2019-02-20T14:33:09.588Z,5.30
2019-02-20T14:35:36.043Z,4.67
2019-02-20T14:38:03.146Z,7.50
2019-02-20T14:40:29.870Z,6.77
2019-02-20T14:42:56.628Z,10.30
2019-02-20T14:45:23.119Z,5.83
2019-02-20T14:47:49.695Z,9.57
2019-02-20T14:50:16.573Z,12.50
2019-02-20T14:52:43.135Z,7.73
2019-02-20T14:55:10.132Z,9.90
2019-02-20T14:57:36.683Z,11.30
2019-02-20T15:00:13.665Z,9.10
2019-02-20T15:02:40.513Z,8.57
2019-02-20T15:05:07.104Z,7.87
2019-02-20T15:07:33.923Z,10.00
2019-02-20T15:10:00.335Z,9.33
2019-02-20T15:12:27.169Z,6.67
2019-02-20T15:14:53.950Z,9.07
2019-02-20T15:17:20.822Z,7.80
2019-02-20T15:19:47.285Z,5.57
2019-02-20T15:22:13.761Z,8.13
2019-02-20T15:24:40.328Z,7.17
2019-02-20T15:27:07.661Z,9.13
2019-02-20T15:29:34.210Z,8.77
2019-02-20T15:32:01.185Z,8.10
2019-02-20T15:34:27.641Z,7.43
2019-02-20T15:36:54.510Z,11.40
2019-02-20T15:39:21.328Z,10.57
2019-02-20T15:41:48.117Z,8.47
2019-02-20T15:44:14.791Z,8.17
2019-02-20T15:46:41.715Z,8.07
2019-02-20T15:49:08.278Z,7.90
2019-02-20T15:51:35.041Z,7.13
2019-02-20T15:54:01.861Z,5.90
2019-02-20T15:56:28.553Z,7.10
2019-02-20T15:58:55.109Z,9.17
2019-02-20T16:01:21.799Z,11.75
2019-02-20T16:03:48.259Z,10.10
2019-02-20T16:06:14.951Z,12.87
2019-02-20T16:08:41.717Z,7.77
2019-02-20T16:11:08.582Z,6.33
2019-02-20T16:13:35.321Z,9.53
2019-02-20T16:16:01.876Z,6.70
2019-02-20T16:18:28.376Z,7.45
2019-02-20T16:20:55.140Z,6.33
2019-02-20T16:23:21.622Z,7.47
2019-02-20T16:25:48.083Z,8.28
2019-02-20T16:28:15.144Z,9.48
2019-02-20T16:30:41.800Z,10.33
2019-02-20T16:33:08.599Z,9.70
2019-02-20T16:35:35.056Z,10.28
2019-02-20T16:38:01.678Z,11.00
2019-02-20T16:40:28.116Z,11.37
2019-02-20T16:42:54.816Z,10.15
2019-02-20T16:45:24.576Z,9.30
2019-02-20T16:47:52.053Z,14.30
2019-02-20T16:50:18.644Z,8.75
2019-02-20T16:52:45.429Z,9.78
2019-02-20T16:55:19.183Z,12.05
2019-02-20T16:57:40.569Z,12.47
2019-02-20T17:00:12.111Z,11.60
2019-02-20T17:02:38.772Z,11.53
2019-02-20T17:05:14.140Z,14.80
2019-02-20T17:07:36.710Z,11.83
2019-02-20T17:10:09.047Z,12.82
2019-02-20T17:12:35.608Z,11.35
2019-02-20T17:15:02.570Z,15.00
2019-02-20T17:17:29.132Z,12.53
2019-02-20T17:19:55.738Z,10.30
2019-02-20T17:22:22.592Z,11.00
2019-02-20T17:24:49.296Z,9.03
2019-02-20T17:27:15.957Z,9.35
2019-02-20T17:29:42.548Z,10.48
2019-02-20T17:32:09.205Z,8.50
2019-02-20T17:34:35.917Z,15.68
2019-02-20T17:37:02.581Z,10.08
2019-02-20T17:39:29.185Z,10.10
2019-02-20T17:41:55.878Z,9.98
2019-02-20T17:44:22.424Z,11.03
2019-02-20T17:46:48.879Z,11.73
2019-02-20T17:49:15.380Z,11.57
2019-02-20T17:51:41.832Z,15.08
2019-02-20T17:54:08.621Z,10.35
2019-02-20T17:56:35.189Z,17.25
2019-02-20T17:59:01.748Z,11.97
2019-02-20T18:01:28.248Z,11.70
2019-02-20T18:03:54.723Z,12.30
2019-02-20T18:06:21.680Z,9.75
2019-02-20T18:08:48.338Z,18.45
2019-02-20T18:11:15.006Z,12.35
2019-02-20T18:13:41.761Z,17.30
2019-02-20T18:16:08.455Z,15.88
2019-02-20T18:18:35.016Z,14.43
2019-02-20T18:21:01.615Z,16.17
2019-02-20T18:23:28.117Z,15.78
2019-02-20T18:25:54.694Z,14.15
2019-02-20T18:28:24.437Z,12.68
2019-02-20T18:30:49.648Z,17.10
2019-02-20T18:33:16.314Z,16.40
2019-02-20T18:35:43.008Z,10.38
2019-02-20T18:38:09.716Z,13.43
2019-02-20T18:40:36.138Z,11.55
2019-02-20T18:43:02.847Z,10.18
2019-02-20T18:45:29.623Z,32.38
2019-02-20T18:47:56.225Z,34.20
2019-02-20T18:50:22.870Z,16.12
2019-02-20T18:52:49.644Z,12.70
2019-02-20T18:55:16.323Z,12.13
2019-02-20T18:57:43.025Z,16.50
2019-02-20T19:00:14.336Z,17.15
2019-02-20T19:02:41.191Z,14.98
2019-02-20T19:05:08.668Z,25.88
2019-02-20T19:07:35.126Z,17.17
2019-02-20T19:10:04.017Z,14.83
2019-02-20T19:12:40.553Z,15.18
2019-02-20T19:15:17.095Z,13.03
2019-02-20T19:18:18.692Z,11.97
2019-02-20T19:20:54.826Z,17.62
2019-02-20T19:23:34.171Z,14.70
2019-02-20T19:26:27.508Z,14.38
2019-02-20T19:29:14.394Z,13.13
2019-02-20T19:32:13.708Z,18.70
2019-02-20T19:34:52.997Z,17.07
2019-02-20T19:37:32.439Z,12.82
2019-02-20T19:40:33.373Z,17.50
2019-02-20T19:43:27.400Z,15.48
2019-02-20T19:46:02.451Z,16.25
2019-02-20T19:48:49.474Z,21.55
2019-02-20T19:51:48.522Z,10.80
2019-02-20T19:54:27.603Z,14.80
2019-02-20T19:57:09.331Z,19.60
2019-02-20T19:59:39.619Z,14.83
2019-02-20T20:02:15.990Z,13.98
2019-02-20T20:05:01.433Z,17.55
2019-02-20T20:07:54.349Z,12.65
2019-02-20T20:10:41.397Z,15.30
2019-02-20T20:13:26.822Z,22.55
2019-02-20T20:16:06.033Z,13.55
2019-02-20T20:18:42.070Z,13.18
2019-02-20T20:21:30.342Z,19.45
2019-02-20T20:24:22.788Z,17.10
2019-02-20T20:27:13.012Z,18.10
2019-02-20T20:29:43.522Z,16.02
2019-02-20T20:32:52.952Z,17.90
2019-02-20T20:35:19.383Z,11.85
2019-02-20T20:37:52.522Z,16.60
2019-02-20T20:40:32.054Z,11.25
2019-02-20T20:43:05.254Z,14.38
2019-02-20T20:45:50.754Z,13.28
2019-02-20T20:48:27.432Z,12.63
2019-02-20T20:51:20.453Z,15.15
2019-02-20T20:54:02.743Z,14.63
2019-02-20T20:56:57.595Z,15.48
2019-02-20T20:59:35.244Z,13.15
2019-02-20T21:02:06.036Z,14.30
2019-02-20T21:04:42.185Z,15.85
2019-02-20T21:07:30.465Z,23.55
2019-02-20T21:10:00.851Z,20.48
2019-02-20T21:12:34.035Z,29.15
2019-02-20T21:15:20.904Z,26.50
2019-02-20T21:18:21.071Z,17.37
2019-02-20T21:21:12.704Z,16.95
2019-02-20T21:23:49.157Z,19.17
2019-02-20T21:26:31.645Z,20.85
2019-02-20T21:29:37.928Z,15.85
2019-02-20T21:32:08.199Z,16.45
2019-02-20T21:34:41.248Z,13.18
2019-02-20T21:37:30.942Z,18.15
2019-02-20T21:40:01.329Z,19.73
2019-02-20T21:42:46.277Z,16.55
2019-02-20T21:45:40.542Z,16.65
2019-02-20T21:48:25.994Z,17.27
2019-02-20T21:50:56.376Z,12.37
2019-02-20T21:53:29.486Z,11.95
2019-02-20T21:56:14.713Z,15.83
2019-02-20T21:59:07.380Z,12.75
2019-02-20T22:02:10.677Z,12.40
2019-02-20T22:04:52.717Z,15.58
2019-02-20T22:07:54.531Z,14.73
2019-02-20T22:10:45.716Z,11.78
2019-02-20T22:13:22.065Z,12.50
2019-02-20T22:16:01.400Z,12.73
2019-02-20T22:18:37.653Z,11.60
2019-02-20T22:21:17.209Z,14.00
2019-02-20T22:23:47.464Z,20.08
2019-02-20T22:26:23.538Z,19.92
2019-02-20T22:28:56.579Z,16.77
2019-02-20T22:31:46.218Z,18.40
2019-02-20T22:34:31.684Z,11.38
2019-02-20T22:37:11.044Z,12.53
2019-02-20T22:39:44.333Z,10.80
2019-02-20T22:42:33.023Z,14.80
2019-02-20T22:45:12.037Z,18.23
2019-02-20T22:48:03.238Z,14.63
2019-02-20T22:50:48.517Z,17.57
2019-02-20T22:53:41.578Z,15.78
2019-02-20T22:56:17.596Z,15.30
2019-02-20T22:58:49.972Z,12.82
2019-02-20T23:01:37.736Z,19.27
2019-02-20T23:04:13.956Z,16.97
2019-02-20T23:06:50.085Z,15.95
2019-02-20T23:09:29.408Z,14.25
2019-02-20T23:12:03.369Z,17.87
2019-02-20T23:14:53.386Z,17.05
2019-02-20T23:17:20.048Z,14.28
2019-02-20T23:19:46.501Z,17.20
2019-02-20T23:22:13.067Z,13.32
2019-02-20T23:24:41.946Z,14.30
2019-02-20T23:27:07.805Z,17.55
2019-02-20T23:29:34.271Z,17.20
2019-02-20T23:32:00.751Z,15.30
2019-02-20T23:34:27.308Z,15.13
2019-02-20T23:36:54.081Z,18.57
2019-02-20T23:39:20.558Z,17.98
2019-02-20T23:41:47.303Z,14.30
2019-02-20T23:44:13.855Z,17.80
2019-02-20T23:46:40.353Z,17.57
2019-02-20T23:49:06.880Z,14.80
2019-02-20T23:51:33.661Z,15.88
2019-02-20T23:54:00.477Z,13.85
2019-02-20T23:56:26.952Z,15.75
2019-02-20T23:58:53.565Z,15.60
